createdAt,value
2023-04-16T00:01:37.702Z,9.20
2023-04-16T00:04:04.873Z,9.20
2023-04-16T00:06:32.089Z,9.20
2023-04-16T00:08:58.983Z,9.20
2023-04-16T00:11:25.835Z,9.20
2023-04-16T00:13:52.569Z,9.10
2023-04-16T00:16:19.309Z,9.10
2023-04-16T00:18:46.528Z,9.10
2023-04-16T00:21:13.267Z,9.00
2023-04-16T00:23:40.091Z,9.10
2023-04-16T00:26:08.500Z,9.10
2023-04-16T00:28:35.351Z,9.10
2023-04-16T00:31:02.232Z,9.10
2023-04-16T00:33:30.155Z,9.10
2023-04-16T00:35:57.100Z,9.10
2023-04-16T00:38:23.896Z,9.00
2023-04-16T00:40:50.689Z,9.00
2023-04-16T00:43:25.422Z,9.00
2023-04-16T00:45:56.705Z,8.90
2023-04-16T00:48:23.762Z,8.90
2023-04-16T00:50:50.538Z,8.90
2023-04-16T00:53:17.357Z,8.90
2023-04-16T00:55:44.542Z,8.90
2023-04-16T00:58:11.338Z,8.90
2023-04-16T01:00:38.085Z,8.90
2023-04-16T01:03:05.376Z,8.90
2023-04-16T01:05:32.364Z,8.90
2023-04-16T01:08:02.658Z,8.90
2023-04-16T01:10:29.540Z,8.90
2023-04-16T01:12:56.380Z,8.90
2023-04-16T01:15:23.230Z,8.90
2023-04-16T01:17:51.064Z,8.90
2023-04-16T01:20:17.923Z,8.80
2023-04-16T01:22:44.692Z,8.80
2023-04-16T01:25:15.114Z,8.80
2023-04-16T01:27:41.933Z,8.80
2023-04-16T01:30:09.034Z,8.80
2023-04-16T01:32:35.799Z,8.80
2023-04-16T01:35:02.596Z,8.80
2023-04-16T01:37:29.584Z,8.80
2023-04-16T01:39:56.390Z,8.70
2023-04-16T01:42:23.160Z,8.70
2023-04-16T01:44:52.014Z,8.80
2023-04-16T01:47:18.825Z,8.70
2023-04-16T01:49:48.182Z,8.80
2023-04-16T01:52:15.051Z,8.80
2023-04-16T01:54:41.924Z,8.80
2023-04-16T01:57:09.095Z,8.70
2023-04-16T01:59:35.824Z,8.80
2023-04-16T02:02:11.282Z,8.70
2023-04-16T02:04:39.746Z,8.70
2023-04-16T02:07:07.539Z,8.70
2023-04-16T02:09:35.477Z,8.70
2023-04-16T02:12:03.266Z,8.70
2023-04-16T02:14:30.839Z,8.70
2023-04-16T02:16:57.662Z,8.70
2023-04-16T02:19:24.469Z,8.70
2023-04-16T02:21:54.966Z,8.70
2023-04-16T02:24:21.756Z,8.70
2023-04-16T02:26:48.501Z,8.70
2023-04-16T02:29:16.469Z,8.70
2023-04-16T02:31:43.433Z,8.70
2023-04-16T02:34:10.301Z,8.60
2023-04-16T02:36:38.929Z,8.60
2023-04-16T02:39:05.798Z,8.60
2023-04-16T02:41:33.835Z,8.60
2023-04-16T02:44:00.962Z,8.60
2023-04-16T02:46:27.733Z,8.50
2023-04-16T02:48:54.556Z,8.50
2023-04-16T02:51:21.388Z,8.60
2023-04-16T02:53:48.112Z,8.60
2023-04-16T02:56:14.859Z,8.60
2023-04-16T02:58:41.625Z,8.60
2023-04-16T03:01:08.378Z,8.50
2023-04-16T03:03:35.584Z,8.50
2023-04-16T03:06:02.336Z,8.50
2023-04-16T03:08:29.110Z,8.50
2023-04-16T03:10:55.882Z,8.50
2023-04-16T03:13:22.675Z,8.50
2023-04-16T03:15:50.037Z,8.50
2023-04-16T03:18:16.925Z,8.50
2023-04-16T03:20:43.782Z,8.50
2023-04-16T03:23:10.561Z,8.50
2023-04-16T03:25:37.291Z,8.50
2023-04-16T03:28:04.559Z,8.50
2023-04-16T03:30:31.448Z,8.50
2023-04-16T03:32:58.251Z,8.50
2023-04-16T03:35:25.016Z,8.40
2023-04-16T03:37:51.768Z,8.50
2023-04-16T03:40:18.497Z,8.40
2023-04-16T03:42:45.408Z,8.50
2023-04-16T03:45:12.229Z,8.40
2023-04-16T03:47:38.973Z,8.40
2023-04-16T03:50:06.187Z,8.40
2023-04-16T03:52:32.908Z,8.40
2023-04-16T03:54:59.676Z,8.40
2023-04-16T03:57:26.453Z,8.40
2023-04-16T03:59:53.195Z,8.40
2023-04-16T04:02:20.041Z,8.50
2023-04-16T04:04:47.118Z,8.40
2023-04-16T04:07:13.956Z,8.40
2023-04-16T04:09:40.760Z,8.40
2023-04-16T04:12:07.487Z,8.40
2023-04-16T04:14:39.663Z,8.40
2023-04-16T04:17:07.046Z,8.40
2023-04-16T04:19:33.900Z,8.40
2023-04-16T04:22:00.669Z,8.40
2023-04-16T04:24:27.352Z,8.40
2023-04-16T04:26:54.086Z,8.40
2023-04-16T04:29:20.848Z,8.40
2023-04-16T04:31:47.662Z,8.40
2023-04-16T04:34:14.409Z,8.40
2023-04-16T04:36:41.118Z,8.40
2023-04-16T04:39:09.497Z,8.40
2023-04-16T04:41:36.424Z,8.40
2023-04-16T04:44:03.171Z,8.40
2023-04-16T04:46:29.874Z,8.40
2023-04-16T04:48:56.600Z,8.40
2023-04-16T04:51:23.458Z,8.40
2023-04-16T04:53:50.527Z,8.30
2023-04-16T04:56:17.284Z,8.40
2023-04-16T04:58:44.225Z,8.30
2023-04-16T05:01:11.232Z,8.30
2023-04-16T05:03:38.352Z,8.30
2023-04-16T05:06:05.264Z,8.30
2023-04-16T05:08:31.978Z,8.30
2023-04-16T05:10:58.793Z,8.30
2023-04-16T05:13:25.562Z,8.30
2023-04-16T05:15:52.314Z,8.30
2023-04-16T05:18:19.059Z,8.30
2023-04-16T05:20:46.108Z,8.30
2023-04-16T05:23:12.901Z,8.30
2023-04-16T05:25:39.635Z,8.30
2023-04-16T05:28:06.370Z,8.30
2023-04-16T05:30:33.107Z,8.30
2023-04-16T05:33:00.028Z,8.30
2023-04-16T05:35:27.715Z,8.30
2023-04-16T05:37:54.436Z,8.30
2023-04-16T05:40:21.218Z,8.30
2023-04-16T05:42:47.975Z,8.30
2023-04-16T05:45:14.752Z,8.20
2023-04-16T05:47:41.531Z,8.30
2023-04-16T05:50:08.581Z,8.20
2023-04-16T05:52:35.505Z,8.30
2023-04-16T05:55:02.248Z,8.30
2023-04-16T05:57:29.605Z,8.30
2023-04-16T05:59:56.377Z,8.30
2023-04-16T06:02:23.383Z,8.30
2023-04-16T06:04:50.315Z,8.30
2023-04-16T06:07:17.051Z,8.30
2023-04-16T06:09:45.238Z,8.30
2023-04-16T06:12:11.974Z,8.30
2023-04-16T06:14:38.726Z,8.30
2023-04-16T06:17:05.531Z,8.30
2023-04-16T06:19:32.245Z,8.30
2023-04-16T06:21:59.065Z,8.30
2023-04-16T06:24:25.987Z,8.30
2023-04-16T06:26:52.903Z,8.30
2023-04-16T06:29:20.411Z,8.30
2023-04-16T06:31:48.318Z,8.30
2023-04-16T06:34:15.287Z,8.30
2023-04-16T06:36:42.064Z,8.30
2023-04-16T06:39:08.998Z,8.30
2023-04-16T06:41:36.323Z,8.30
2023-04-16T06:44:03.133Z,8.30
2023-04-16T06:46:30.929Z,8.40
2023-04-16T06:48:57.697Z,8.40
2023-04-16T06:51:24.435Z,8.40
2023-04-16T06:53:51.224Z,8.40
2023-04-16T06:56:17.969Z,8.40
2023-04-16T06:58:44.692Z,8.40
2023-04-16T07:01:11.618Z,8.40
2023-04-16T07:03:38.805Z,8.40
2023-04-16T07:06:05.826Z,8.40
2023-04-16T07:08:32.580Z,8.40
2023-04-16T07:10:59.415Z,8.40
2023-04-16T07:13:26.150Z,8.40
2023-04-16T07:15:52.955Z,8.40
2023-04-16T07:18:20.793Z,8.40
2023-04-16T07:20:48.123Z,8.40
2023-04-16T07:23:14.837Z,8.40
2023-04-16T07:25:42.472Z,8.40
2023-04-16T07:28:09.253Z,8.40
2023-04-16T07:30:36.556Z,8.50
2023-04-16T07:33:03.939Z,8.50
2023-04-16T07:35:31.438Z,8.50
2023-04-16T07:37:58.214Z,8.50
2023-04-16T07:40:25.126Z,8.60
2023-04-16T07:42:52.007Z,8.60
2023-04-16T07:45:19.163Z,8.60
2023-04-16T07:47:46.276Z,8.70
2023-04-16T07:50:13.335Z,8.70
2023-04-16T07:52:42.390Z,8.70
2023-04-16T07:55:09.427Z,8.70
2023-04-16T07:57:36.401Z,8.70
2023-04-16T08:00:05.060Z,8.70
2023-04-16T08:02:31.997Z,8.80
2023-04-16T08:04:59.727Z,8.80
2023-04-16T08:07:26.597Z,8.80
2023-04-16T08:09:53.954Z,8.80
2023-04-16T08:12:21.282Z,8.80
2023-04-16T08:14:48.569Z,8.90
2023-04-16T08:17:16.164Z,8.90
2023-04-16T08:19:45.081Z,8.90
2023-04-16T08:22:12.939Z,8.90
2023-04-16T08:24:40.083Z,8.90
2023-04-16T08:27:17.879Z,8.90
2023-04-16T08:29:55.111Z,8.90
2023-04-16T08:32:22.034Z,9.00
2023-04-16T08:34:48.945Z,9.00
2023-04-16T08:37:15.727Z,9.00
2023-04-16T08:39:42.601Z,9.00
2023-04-16T08:42:14.541Z,9.00
2023-04-16T08:44:43.959Z,9.10
2023-04-16T08:47:12.691Z,9.10
2023-04-16T08:49:43.982Z,9.10
2023-04-16T08:52:15.360Z,9.10
2023-04-16T08:55:00.890Z,9.20
2023-04-16T08:57:31.582Z,9.20
2023-04-16T08:59:58.353Z,9.20
2023-04-16T09:02:26.333Z,9.20
2023-04-16T09:04:53.953Z,9.20
2023-04-16T09:07:21.976Z,9.30
2023-04-16T09:09:50.381Z,9.30
2023-04-16T09:12:17.492Z,9.30
2023-04-16T09:14:48.714Z,9.40
2023-04-16T09:17:16.847Z,9.40
2023-04-16T09:19:44.246Z,9.40
2023-04-16T09:22:11.642Z,9.40
2023-04-16T09:24:38.764Z,9.40
2023-04-16T09:27:05.593Z,9.50
2023-04-16T09:29:38.711Z,9.50
2023-04-16T09:32:07.466Z,9.50
2023-04-16T09:34:35.888Z,9.50
2023-04-16T09:37:20.225Z,9.50
2023-04-16T09:39:55.079Z,9.50
2023-04-16T09:42:39.987Z,9.60
2023-04-16T09:45:07.237Z,9.50
2023-04-16T09:47:42.128Z,9.60
2023-04-16T09:50:11.974Z,9.60
2023-04-16T09:52:39.675Z,9.60
2023-04-16T09:55:07.187Z,9.60
2023-04-16T09:57:37.764Z,9.60
2023-04-16T10:00:06.591Z,9.60
2023-04-16T10:02:34.661Z,9.70
2023-04-16T10:05:05.736Z,9.70
2023-04-16T10:07:36.975Z,9.70
2023-04-16T10:10:05.022Z,9.70
2023-04-16T10:12:32.862Z,9.70
2023-04-16T10:15:00.018Z,9.70
2023-04-16T10:17:27.274Z,9.70
2023-04-16T10:19:54.653Z,9.70
2023-04-16T10:22:21.426Z,9.70
2023-04-16T10:24:48.878Z,9.70
2023-04-16T10:27:17.255Z,9.70
2023-04-16T10:29:44.393Z,9.80
2023-04-16T10:32:11.465Z,9.70
2023-04-16T10:34:38.239Z,9.80
2023-04-16T10:37:05.122Z,9.70
2023-04-16T10:39:37.569Z,9.80
2023-04-16T10:42:13.877Z,9.80
2023-04-16T10:44:44.382Z,9.80
2023-04-16T10:47:13.262Z,9.80
2023-04-16T10:49:41.165Z,9.80
2023-04-16T10:52:12.549Z,9.80
2023-04-16T10:54:40.322Z,9.80
2023-04-16T10:57:10.417Z,9.90
2023-04-16T10:59:38.483Z,9.90
2023-04-16T11:02:18.912Z,9.90
2023-04-16T11:04:47.454Z,9.90
2023-04-16T11:07:22.361Z,9.90
2023-04-16T11:10:04.387Z,9.90
2023-04-16T11:12:39.038Z,10.00
2023-04-16T11:15:13.282Z,9.90
2023-04-16T11:17:40.203Z,10.00
2023-04-16T11:20:17.708Z,10.00
2023-04-16T11:22:50.963Z,10.00
2023-04-16T11:25:21.965Z,10.00
2023-04-16T11:27:49.681Z,9.90
2023-04-16T11:30:17.038Z,10.00
2023-04-16T11:32:44.061Z,10.00
2023-04-16T11:35:16.224Z,10.00
2023-04-16T11:37:43.224Z,10.00
2023-04-16T11:40:10.928Z,9.90
2023-04-16T11:42:40.559Z,10.00
2023-04-16T11:45:12.177Z,10.00
2023-04-16T11:47:51.975Z,10.00
2023-04-16T11:50:27.313Z,10.00
2023-04-16T11:53:03.444Z,10.00
2023-04-16T11:55:30.700Z,10.10
2023-04-16T11:57:57.444Z,10.10
2023-04-16T12:00:24.988Z,10.10
2023-04-16T12:02:57.689Z,10.10
2023-04-16T12:05:34.874Z,10.10
2023-04-16T12:08:03.846Z,10.20
2023-04-16T12:10:35.330Z,10.20
2023-04-16T12:13:14.657Z,10.20
2023-04-16T12:15:46.263Z,10.30
2023-04-16T12:18:13.569Z,10.30
2023-04-16T12:20:44.052Z,10.40
2023-04-16T12:23:22.194Z,10.30
2023-04-16T12:25:50.055Z,10.40
2023-04-16T12:28:34.305Z,10.40
2023-04-16T12:31:02.515Z,10.40
2023-04-16T12:33:29.427Z,10.50
2023-04-16T12:35:56.402Z,10.50
2023-04-16T12:38:24.695Z,10.50
2023-04-16T12:40:51.973Z,10.50
2023-04-16T12:43:21.791Z,10.50
2023-04-16T12:45:49.410Z,10.60
2023-04-16T12:48:16.296Z,10.60
2023-04-16T12:50:44.262Z,10.60
2023-04-16T12:53:11.812Z,10.60
2023-04-16T12:55:38.673Z,10.70
2023-04-16T12:58:05.702Z,10.70
2023-04-16T13:00:32.836Z,10.70
2023-04-16T13:02:59.733Z,10.70
2023-04-16T13:05:27.225Z,10.70
2023-04-16T13:07:54.134Z,10.70
2023-04-16T13:10:21.605Z,10.80
2023-04-16T13:12:48.994Z,10.80
2023-04-16T13:15:16.135Z,10.90
2023-04-16T13:17:42.969Z,11.00
2023-04-16T13:20:10.532Z,11.00
2023-04-16T13:22:37.547Z,11.10
2023-04-16T13:25:04.930Z,11.10
2023-04-16T13:27:32.600Z,11.20
2023-04-16T13:29:59.479Z,11.30
2023-04-16T13:32:26.631Z,11.30
2023-04-16T13:34:53.497Z,11.30
2023-04-16T13:37:20.344Z,11.40
2023-04-16T13:39:47.352Z,11.40
2023-04-16T13:42:14.183Z,11.40
2023-04-16T13:44:41.078Z,11.40
2023-04-16T13:47:08.123Z,11.50
2023-04-16T13:49:36.188Z,11.50
2023-04-16T13:52:03.471Z,11.50
2023-04-16T13:54:30.267Z,11.60
2023-04-16T13:56:57.104Z,11.60
2023-04-16T13:59:23.963Z,11.60
2023-04-16T14:01:51.221Z,11.70
2023-04-16T14:04:18.280Z,11.70
2023-04-16T14:06:45.223Z,11.70
2023-04-16T14:09:12.161Z,11.70
2023-04-16T14:11:39.031Z,11.70
2023-04-16T14:14:06.025Z,11.70
2023-04-16T14:16:33.441Z,11.80
2023-04-16T14:19:00.300Z,11.80
2023-04-16T14:21:27.330Z,11.90
2023-04-16T14:23:54.154Z,11.90
2023-04-16T14:26:21.084Z,11.90
2023-04-16T14:28:47.928Z,11.90
2023-04-16T14:31:14.799Z,12.00
2023-04-16T14:33:41.580Z,12.00
2023-04-16T14:36:08.384Z,12.00
2023-04-16T14:38:35.238Z,12.00
2023-04-16T14:41:02.045Z,12.00
2023-04-16T14:43:28.843Z,12.00
2023-04-16T14:45:57.130Z,12.00
2023-04-16T14:48:23.946Z,12.00
2023-04-16T14:50:50.903Z,12.10
2023-04-16T14:53:17.762Z,12.00
2023-04-16T14:55:44.682Z,12.10
2023-04-16T14:58:11.807Z,12.00
2023-04-16T15:00:38.644Z,12.00
2023-04-16T15:03:06.193Z,12.10
2023-04-16T15:05:33.294Z,12.10
2023-04-16T15:08:00.647Z,12.10
2023-04-16T15:10:27.861Z,12.10
2023-04-16T15:12:54.594Z,12.10
2023-04-16T15:15:21.486Z,12.20
2023-04-16T15:17:50.434Z,12.20
2023-04-16T15:20:17.583Z,12.30
2023-04-16T15:22:44.359Z,12.30
2023-04-16T15:25:11.223Z,12.30
2023-04-16T15:27:37.940Z,12.20
2023-04-16T15:30:05.204Z,12.10
2023-04-16T15:32:31.997Z,12.20
2023-04-16T15:34:59.919Z,12.30
2023-04-16T15:37:26.776Z,12.30
2023-04-16T15:39:53.623Z,12.30
2023-04-16T15:42:20.767Z,12.30
2023-04-16T15:44:47.632Z,12.30
2023-04-16T15:47:14.448Z,12.30
2023-04-16T15:49:41.794Z,12.30
2023-04-16T15:52:09.339Z,12.30
2023-04-16T15:54:36.160Z,12.30
2023-04-16T15:57:02.952Z,12.30
2023-04-16T15:59:29.698Z,12.30
2023-04-16T16:01:56.613Z,12.20
2023-04-16T16:04:26.133Z,12.20
2023-04-16T16:06:53.856Z,12.30
2023-04-16T16:09:25.821Z,12.30
2023-04-16T16:11:54.369Z,12.30
2023-04-16T16:14:22.158Z,12.30
2023-04-16T16:16:48.979Z,12.40
2023-04-16T16:19:15.800Z,12.30
2023-04-16T16:21:42.652Z,12.40
2023-04-16T16:24:09.551Z,12.40
2023-04-16T16:26:36.388Z,12.40
2023-04-16T16:29:03.321Z,12.30
2023-04-16T16:31:30.182Z,12.20
2023-04-16T16:33:57.013Z,12.30
2023-04-16T16:36:23.776Z,12.30
2023-04-16T16:38:50.609Z,12.30
2023-04-16T16:41:17.456Z,12.30
2023-04-16T16:43:44.246Z,12.20
2023-04-16T16:46:11.547Z,12.30
2023-04-16T16:48:38.353Z,12.20
2023-04-16T16:51:09.570Z,12.20
2023-04-16T16:53:36.336Z,12.20
2023-04-16T16:56:03.190Z,12.20
2023-04-16T16:58:29.969Z,12.20
2023-04-16T17:00:56.837Z,12.20
2023-04-16T17:03:23.790Z,12.10
2023-04-16T17:05:50.670Z,12.10
2023-04-16T17:08:17.459Z,12.20
2023-04-16T17:10:44.554Z,12.10
2023-04-16T17:13:13.666Z,12.10
2023-04-16T17:15:40.986Z,12.10
2023-04-16T17:18:07.828Z,12.10
2023-04-16T17:20:34.674Z,12.10
2023-04-16T17:23:01.463Z,12.00
2023-04-16T17:25:28.254Z,11.90
2023-04-16T17:27:55.050Z,11.90
2023-04-16T17:30:23.783Z,11.90
2023-04-16T17:32:50.655Z,11.90
2023-04-16T17:35:17.549Z,12.00
2023-04-16T17:37:44.529Z,11.90
2023-04-16T17:40:12.758Z,12.00
2023-04-16T17:42:39.718Z,11.90
2023-04-16T17:45:07.229Z,11.90
2023-04-16T17:47:37.546Z,11.90
2023-04-16T17:50:05.149Z,11.90
2023-04-16T17:52:31.995Z,11.90
2023-04-16T17:55:01.390Z,11.90
2023-04-16T17:57:28.423Z,11.80
2023-04-16T17:59:55.688Z,11.80
2023-04-16T18:02:23.126Z,11.80
2023-04-16T18:04:50.138Z,11.80
2023-04-16T18:07:17.074Z,11.70
2023-04-16T18:09:43.805Z,11.80
2023-04-16T18:12:10.778Z,11.70
2023-04-16T18:14:38.767Z,11.70
2023-04-16T18:17:06.624Z,11.70
2023-04-16T18:19:33.926Z,11.70
2023-04-16T18:22:00.713Z,11.60
2023-04-16T18:24:27.449Z,11.70
2023-04-16T18:26:55.287Z,11.70
2023-04-16T18:29:25.093Z,11.60
2023-04-16T18:31:52.472Z,11.60
2023-04-16T18:34:19.423Z,11.60
2023-04-16T18:36:46.254Z,11.60
2023-04-16T18:39:13.234Z,11.60
2023-04-16T18:41:40.854Z,11.60
2023-04-16T18:44:07.700Z,11.50
2023-04-16T18:46:34.463Z,11.50
2023-04-16T18:49:01.431Z,11.40
2023-04-16T18:51:28.334Z,11.40
2023-04-16T18:53:55.201Z,11.40
2023-04-16T18:56:21.911Z,11.40
2023-04-16T18:58:49.341Z,11.30
2023-04-16T19:01:16.686Z,11.30
2023-04-16T19:03:43.672Z,11.30
2023-04-16T19:06:10.506Z,11.20
2023-04-16T19:08:37.308Z,11.30
2023-04-16T19:11:04.080Z,11.30
2023-04-16T19:13:32.376Z,11.20
2023-04-16T19:16:00.422Z,11.20
2023-04-16T19:18:27.445Z,11.20
2023-04-16T19:21:01.341Z,11.20
2023-04-16T19:23:28.227Z,11.10
2023-04-16T19:25:58.159Z,11.00
2023-04-16T19:28:25.508Z,11.00
2023-04-16T19:30:54.868Z,11.00
2023-04-16T19:33:21.648Z,10.90
2023-04-16T19:35:48.478Z,11.00
2023-04-16T19:38:15.633Z,11.00
2023-04-16T19:40:46.721Z,10.90
2023-04-16T19:43:14.094Z,10.90
2023-04-16T19:45:47.881Z,10.90
2023-04-16T19:48:14.755Z,10.80
2023-04-16T19:50:42.270Z,10.80
2023-04-16T19:53:09.762Z,10.80
2023-04-16T19:55:36.787Z,10.80
2023-04-16T19:58:06.576Z,10.80
2023-04-16T20:00:34.625Z,10.80
2023-04-16T20:03:01.619Z,10.70
2023-04-16T20:05:29.005Z,10.80
2023-04-16T20:07:56.543Z,10.70
2023-04-16T20:10:24.203Z,10.70
2023-04-16T20:12:51.427Z,10.70
2023-04-16T20:15:18.742Z,10.70
2023-04-16T20:17:45.864Z,10.70
2023-04-16T20:20:15.242Z,10.70
2023-04-16T20:22:43.372Z,10.70
2023-04-16T20:25:10.380Z,10.70
2023-04-16T20:27:37.138Z,10.60
2023-04-16T20:30:05.481Z,10.60
2023-04-16T20:32:32.367Z,10.60
2023-04-16T20:34:59.848Z,10.60
2023-04-16T20:37:28.760Z,10.60
2023-04-16T20:39:56.249Z,10.60
2023-04-16T20:42:23.511Z,10.50
2023-04-16T20:44:50.564Z,10.50
2023-04-16T20:47:17.452Z,10.50
2023-04-16T20:49:47.494Z,10.50
2023-04-16T20:52:14.446Z,10.50
2023-04-16T20:54:41.549Z,10.40
2023-04-16T20:57:08.411Z,10.30
2023-04-16T20:59:36.838Z,10.30
2023-04-16T21:02:03.741Z,10.30
2023-04-16T21:04:30.787Z,10.30
2023-04-16T21:06:57.719Z,10.20
2023-04-16T21:09:24.704Z,10.20
2023-04-16T21:11:51.474Z,10.20
2023-04-16T21:14:18.524Z,10.10
2023-04-16T21:16:45.521Z,10.20
2023-04-16T21:19:12.389Z,10.20
2023-04-16T21:21:39.284Z,10.20
2023-04-16T21:24:06.480Z,10.20
2023-04-16T21:26:33.207Z,10.20
2023-04-16T21:29:00.022Z,10.10
2023-04-16T21:31:27.289Z,10.10
2023-04-16T21:33:54.099Z,10.10
2023-04-16T21:36:20.850Z,10.10
2023-04-16T21:38:47.598Z,10.10
2023-04-16T21:41:14.356Z,10.10
2023-04-16T21:43:41.133Z,10.10
2023-04-16T21:46:07.985Z,10.00
2023-04-16T21:48:34.745Z,10.00
2023-04-16T21:51:06.416Z,10.00
2023-04-16T21:53:33.769Z,10.00
2023-04-16T21:56:00.708Z,10.00
2023-04-16T21:58:27.537Z,9.90
2023-04-16T22:00:54.401Z,9.90
2023-04-16T22:03:27.593Z,9.80
2023-04-16T22:06:00.943Z,9.90
2023-04-16T22:08:31.027Z,9.90
2023-04-16T22:11:02.289Z,9.90
2023-04-16T22:13:32.148Z,9.90
2023-04-16T22:16:02.016Z,9.80
2023-04-16T22:18:33.156Z,9.80
2023-04-16T22:21:00.330Z,9.80
2023-04-16T22:23:27.157Z,9.80
2023-04-16T22:25:55.305Z,9.80
2023-04-16T22:28:22.445Z,9.80
2023-04-16T22:30:49.495Z,9.80
2023-04-16T22:33:16.318Z,9.80
2023-04-16T22:35:43.101Z,9.70
2023-04-16T22:38:10.422Z,9.70
2023-04-16T22:40:37.293Z,9.70
2023-04-16T22:43:04.582Z,9.70
2023-04-16T22:45:31.389Z,9.80
2023-04-16T22:47:58.251Z,9.70
2023-04-16T22:50:25.001Z,9.70
2023-04-16T22:52:51.736Z,9.70
2023-04-16T22:55:18.515Z,9.70
2023-04-16T22:57:45.268Z,9.70
2023-04-16T23:00:16.176Z,9.60
2023-04-16T23:02:43.454Z,9.70
2023-04-16T23:05:10.741Z,9.70
2023-04-16T23:07:37.524Z,9.60
2023-04-16T23:10:04.525Z,9.60
2023-04-16T23:12:31.265Z,9.60
2023-04-16T23:14:58.330Z,9.60
2023-04-16T23:17:25.247Z,9.60
2023-04-16T23:19:52.090Z,9.60
2023-04-16T23:22:18.807Z,9.60
2023-04-16T23:24:45.766Z,9.60
2023-04-16T23:27:12.536Z,9.60
2023-04-16T23:29:39.284Z,9.50
2023-04-16T23:32:06.027Z,9.60
2023-04-16T23:34:32.761Z,9.60
2023-04-16T23:36:59.493Z,9.60
2023-04-16T23:39:26.220Z,9.60
2023-04-16T23:41:52.989Z,9.60
2023-04-16T23:44:19.834Z,9.50
2023-04-16T23:46:46.656Z,9.50
2023-04-16T23:49:13.549Z,9.50
2023-04-16T23:51:40.570Z,9.50
2023-04-16T23:54:07.348Z,9.50
2023-04-16T23:56:34.101Z,9.50
2023-04-16T23:59:00.868Z,9.50
